createdAt,value
2023-05-24T00:45:31.798Z,23.28
2023-05-24T00:50:38.457Z,22.39
2023-05-24T00:55:41.815Z,21.74
2023-05-24T01:00:49.909Z,22.40
2023-05-24T01:05:53.020Z,24.69
2023-05-24T01:11:04.827Z,24.65
2023-05-24T01:16:11.369Z,22.99
2023-05-24T01:21:48.852Z,21.96
2023-05-24T01:27:13.450Z,22.56
2023-05-24T01:32:19.192Z,24.80
2023-05-24T01:37:22.716Z,24.60
2023-05-24T01:43:16.757Z,23.09
2023-05-24T01:48:30.409Z,22.03
2023-05-24T01:53:39.870Z,21.38
2023-05-24T01:58:46.113Z,22.05
2023-05-24T02:03:51.342Z,24.40
2023-05-24T02:08:54.697Z,24.68
2023-05-24T02:13:57.794Z,23.12
2023-05-24T02:19:01.013Z,22.10
2023-05-24T02:24:04.657Z,21.39
2023-05-24T02:29:08.018Z,21.97
2023-05-24T02:34:15.961Z,24.27
2023-05-24T02:39:19.018Z,24.51
2023-05-24T02:44:22.085Z,22.93
2023-05-24T02:49:25.163Z,21.95
2023-05-24T02:54:28.212Z,21.27
2023-05-24T02:59:32.414Z,21.99
2023-05-24T03:04:36.260Z,24.32
2023-05-24T03:09:39.639Z,24.56
2023-05-24T03:14:42.912Z,23.05
2023-05-24T03:19:46.115Z,22.08
2023-05-24T03:24:49.331Z,21.43
2023-05-24T03:29:52.721Z,22.12
2023-05-24T03:34:59.648Z,24.43
2023-05-24T03:40:07.160Z,24.47
2023-05-24T03:45:39.109Z,22.90
2023-05-24T03:50:44.336Z,22.02
2023-05-24T03:55:47.908Z,21.39
2023-05-24T04:00:51.083Z,22.14
2023-05-24T04:05:55.112Z,24.48
2023-05-24T04:10:58.392Z,24.23
2023-05-24T04:16:01.742Z,22.77
2023-05-24T04:21:05.159Z,21.85
2023-05-24T04:26:10.399Z,21.18
2023-05-24T04:31:15.833Z,21.85
2023-05-24T04:36:19.451Z,24.05
2023-05-24T04:41:22.789Z,23.61
2023-05-24T04:46:27.451Z,22.22
2023-05-24T04:51:30.654Z,21.36
2023-05-24T04:56:33.692Z,20.74
2023-05-24T05:01:37.047Z,21.45
2023-05-24T05:06:40.743Z,23.75
2023-05-24T05:11:44.016Z,23.03
2023-05-24T05:16:47.301Z,21.78
2023-05-24T05:21:56.516Z,21.05
2023-05-24T05:26:59.585Z,20.54
2023-05-24T05:32:02.825Z,21.29
2023-05-24T05:37:06.133Z,23.66
2023-05-24T05:42:09.268Z,23.47
2023-05-24T05:47:12.498Z,22.14
2023-05-24T05:52:15.647Z,21.38
2023-05-24T05:57:24.520Z,20.87
2023-05-24T06:02:27.792Z,21.66
2023-05-24T06:07:31.272Z,24.03
2023-05-24T06:12:34.541Z,23.65
2023-05-24T06:17:37.953Z,22.40
2023-05-24T06:22:42.727Z,21.68
2023-05-24T06:27:45.979Z,21.20
2023-05-24T06:32:49.147Z,21.91
2023-05-24T06:37:52.603Z,24.35
2023-05-24T06:42:55.757Z,23.77
2023-05-24T06:47:59.070Z,22.61
2023-05-24T06:53:03.197Z,21.93
2023-05-24T06:58:07.236Z,21.38
2023-05-24T07:03:10.431Z,20.93
2023-05-24T07:08:13.584Z,21.69
2023-05-24T07:13:16.952Z,24.10
2023-05-24T07:18:20.136Z,23.52
2023-05-24T07:23:23.320Z,22.35
2023-05-24T07:28:27.316Z,21.64
2023-05-24T07:33:30.529Z,21.11
2023-05-24T07:38:35.090Z,20.72
2023-05-24T07:43:38.197Z,21.61
2023-05-24T07:48:41.541Z,24.05
2023-05-24T07:53:44.875Z,23.35
2023-05-24T07:58:49.336Z,22.21
2023-05-24T08:06:28.217Z,21.31
2023-05-24T08:11:31.438Z,20.85
2023-05-24T08:16:34.540Z,21.62
2023-05-24T08:21:37.943Z,23.15
2023-05-24T08:26:41.474Z,21.74
2023-05-24T08:31:45.021Z,20.73
2023-05-24T08:36:49.339Z,21.27
2023-05-24T08:42:08.610Z,23.46
2023-05-24T08:47:16.384Z,22.60
2023-05-24T08:52:21.316Z,21.05
2023-05-24T08:57:26.925Z,20.08
2023-05-24T09:02:30.499Z,20.75
2023-05-24T09:07:34.305Z,23.17
2023-05-24T09:12:39.604Z,23.20
2023-05-24T09:17:43.217Z,21.69
2023-05-24T09:22:51.116Z,20.75
2023-05-24T09:33:32.633Z,21.20
2023-05-24T09:38:36.799Z,23.45
2023-05-24T09:43:50.221Z,22.68
2023-05-24T09:49:00.184Z,21.19
2023-05-24T09:54:03.822Z,20.32
2023-05-24T09:59:08.771Z,19.69
2023-05-24T10:04:12.772Z,20.47
2023-05-24T10:09:16.314Z,22.99
2023-05-24T10:14:20.116Z,23.36
2023-05-24T10:19:23.620Z,21.69
2023-05-24T10:24:33.026Z,20.63
2023-05-24T10:33:32.657Z,20.53
2023-05-24T10:38:42.099Z,22.96
2023-05-24T10:44:00.891Z,22.40
2023-05-24T10:49:15.240Z,20.88
2023-05-24T10:54:20.213Z,19.97
2023-05-24T10:59:37.567Z,20.36
2023-05-24T11:04:46.616Z,22.64
2023-05-24T11:09:58.254Z,21.49
2023-05-24T11:15:03.129Z,20.08
2023-05-24T11:20:09.389Z,19.21
2023-05-24T11:25:13.035Z,20.03
2023-05-24T11:30:16.303Z,22.53
2023-05-24T11:35:20.296Z,22.11
2023-05-24T11:40:25.121Z,20.77
2023-05-24T11:45:29.613Z,19.92
2023-05-24T11:50:42.209Z,19.29
2023-05-24T11:55:54.585Z,20.17
2023-05-24T12:00:57.532Z,22.36
2023-05-24T12:06:00.673Z,21.18
2023-05-24T12:11:05.388Z,20.09
2023-05-24T12:16:13.200Z,19.38
2023-05-24T12:21:16.308Z,18.89
2023-05-24T12:26:22.805Z,19.77
2023-05-24T12:33:30.750Z,22.24
2023-05-24T12:38:33.874Z,20.84
2023-05-24T12:43:37.243Z,19.87
2023-05-24T12:48:40.452Z,19.32
2023-05-24T12:53:43.904Z,18.91
2023-05-24T12:58:47.554Z,19.87
2023-05-24T13:03:51.029Z,21.66
2023-05-24T13:08:54.267Z,20.42
2023-05-24T13:13:59.924Z,19.53
2023-05-24T13:19:03.302Z,18.91
2023-05-24T13:24:07.940Z,18.51
2023-05-24T13:34:18.663Z,22.07
2023-05-24T13:39:22.530Z,21.27
2023-05-24T13:44:25.762Z,20.20
2023-05-24T13:49:29.828Z,19.47
2023-05-24T13:54:33.340Z,19.00
2023-05-24T13:59:36.493Z,18.66
2023-05-24T14:04:39.614Z,18.38
2023-05-24T14:09:42.927Z,19.45
2023-05-24T14:20:00.085Z,20.24
2023-05-24T14:25:03.681Z,19.52
2023-05-24T14:30:08.406Z,19.07
2023-05-24T14:35:11.652Z,18.76
2023-05-24T14:40:16.954Z,18.53
2023-05-24T14:45:21.796Z,18.37
2023-05-24T14:50:24.844Z,19.34
2023-05-24T14:55:27.952Z,22.09
2023-05-24T15:00:31.128Z,21.45
2023-05-24T15:05:35.301Z,20.28
2023-05-24T15:10:41.383Z,19.59
2023-05-24T15:15:44.739Z,19.21
2023-05-24T15:20:48.747Z,18.90
2023-05-24T15:25:52.377Z,18.67
2023-05-24T15:36:32.768Z,19.37
2023-05-24T15:41:37.658Z,22.09
2023-05-24T15:46:41.474Z,21.63
2023-05-24T15:57:04.182Z,19.77
2023-05-24T16:02:08.553Z,19.32
2023-05-24T16:07:11.700Z,18.98
2023-05-24T16:12:14.897Z,18.73
2023-05-24T16:17:18.312Z,18.52
2023-05-24T16:22:21.447Z,18.37
2023-05-24T16:27:24.563Z,18.24
2023-05-24T16:38:08.115Z,21.66
2023-05-24T16:43:11.323Z,20.46
2023-05-24T16:48:14.929Z,19.67
2023-05-24T16:53:18.368Z,19.23
2023-05-24T16:58:22.612Z,18.92
2023-05-24T17:03:30.358Z,18.67
2023-05-24T17:08:35.725Z,18.46
2023-05-24T17:13:38.935Z,18.27
2023-05-24T17:18:42.352Z,18.13
2023-05-24T17:23:45.612Z,19.19
2023-05-24T17:28:48.851Z,22.03
2023-05-24T17:33:52.038Z,21.60
2023-05-24T17:38:55.215Z,20.53
2023-05-24T17:43:59.147Z,19.92
2023-05-24T17:49:02.978Z,19.46
2023-05-24T17:54:06.521Z,19.09
2023-05-24T17:59:10.210Z,18.79
2023-05-24T18:04:13.439Z,18.54
2023-05-24T18:09:17.084Z,18.35
2023-05-24T18:33:36.686Z,21.04
2023-05-24T18:38:40.310Z,19.91
2023-05-24T18:43:43.542Z,19.30
2023-05-24T18:48:47.556Z,18.93
2023-05-24T18:53:51.891Z,18.63
2023-05-24T18:59:00.598Z,18.37
2023-05-24T19:04:04.168Z,18.14
2023-05-24T19:09:07.322Z,19.16
2023-05-24T19:14:13.924Z,21.89
2023-05-24T19:19:17.134Z,21.37
2023-05-24T19:24:21.459Z,20.26
2023-05-24T19:35:02.283Z,18.93
2023-05-24T19:40:07.163Z,18.47
2023-05-24T19:45:10.626Z,18.13
2023-05-24T19:50:13.797Z,17.89
2023-05-24T19:55:16.915Z,17.70
2023-05-24T20:00:20.033Z,17.53
2023-05-24T20:05:23.462Z,17.40
2023-05-24T20:10:28.763Z,18.51
2023-05-24T20:15:31.936Z,21.35
2023-05-24T20:20:35.619Z,20.91
2023-05-24T20:25:38.793Z,19.73
2023-05-24T20:30:45.858Z,19.09
2023-05-24T20:35:50.050Z,18.65
2023-05-24T20:40:53.323Z,18.29
2023-05-24T22:45:33.273Z,17.40
2023-05-24T22:50:49.080Z,17.17
2023-05-24T22:55:52.369Z,17.00
2023-05-24T23:00:55.454Z,16.86
2023-05-24T23:06:04.510Z,18.03
2023-05-24T23:11:10.718Z,20.90
2023-05-24T23:34:27.840Z,18.01
2023-05-24T23:39:31.076Z,17.68
2023-05-24T23:44:34.258Z,17.41
2023-05-24T23:49:37.525Z,17.18
2023-05-24T23:54:40.721Z,17.00
2023-05-24T23:59:43.967Z,18.09
